createdAt,value
2019-05-11T00:01:54.359Z,15.95
2019-05-11T00:04:25.322Z,15.93
2019-05-11T00:06:56.358Z,15.91
2019-05-11T00:09:27.355Z,15.88
2019-05-11T00:11:58.592Z,15.84
2019-05-11T00:14:29.582Z,15.79
2019-05-11T00:17:00.531Z,15.70
2019-05-11T00:19:31.519Z,15.65
2019-05-11T00:22:03.423Z,15.61
2019-05-11T00:24:34.429Z,15.59
2019-05-11T00:27:05.394Z,15.56
2019-05-11T00:29:36.374Z,15.53
2019-05-11T00:32:07.367Z,15.49
2019-05-11T00:34:38.510Z,15.44
2019-05-11T00:37:09.484Z,15.42
2019-05-11T00:39:40.442Z,15.40
2019-05-11T00:42:11.425Z,15.39
2019-05-11T00:44:42.390Z,15.41
2019-05-11T00:47:13.371Z,15.41
2019-05-11T00:49:44.335Z,15.40
2019-05-11T00:52:15.388Z,15.40
2019-05-11T00:54:46.350Z,15.41
2019-05-11T00:57:17.344Z,15.42
2019-05-11T00:59:48.336Z,15.41
2019-05-11T01:02:19.298Z,15.41
2019-05-11T01:04:50.281Z,15.40
2019-05-11T01:07:21.246Z,15.37
2019-05-11T01:09:52.199Z,15.34
2019-05-11T01:12:23.180Z,15.31
2019-05-11T01:14:54.151Z,15.28
2019-05-11T01:17:25.183Z,15.25
2019-05-11T01:19:56.166Z,15.23
2019-05-11T01:22:27.132Z,15.20
2019-05-11T01:24:58.698Z,15.18
2019-05-11T01:27:29.655Z,15.17
2019-05-11T01:30:00.615Z,15.18
2019-05-11T01:32:31.586Z,15.20
2019-05-11T01:35:02.596Z,15.19
2019-05-11T01:37:33.592Z,15.19
2019-05-11T01:40:06.070Z,15.16
2019-05-11T01:42:37.038Z,15.16
2019-05-11T01:45:08.842Z,15.11
2019-05-11T01:47:39.811Z,15.10
2019-05-11T01:50:11.582Z,15.08
2019-05-11T01:52:42.544Z,15.05
2019-05-11T01:55:13.583Z,15.03
2019-05-11T01:57:44.543Z,15.02
2019-05-11T02:00:15.681Z,15.02
2019-05-11T02:02:46.653Z,15.02
2019-05-11T02:05:29.934Z,15.00
2019-05-11T02:08:02.510Z,14.98
2019-05-11T02:10:33.753Z,14.96
2019-05-11T02:13:04.699Z,14.95
2019-05-11T02:15:35.666Z,14.97
2019-05-11T02:18:06.901Z,14.97
2019-05-11T02:20:37.866Z,14.97
2019-05-11T02:23:08.832Z,14.96
2019-05-11T02:25:39.796Z,14.97
2019-05-11T02:28:11.899Z,14.97
2019-05-11T02:30:42.877Z,14.96
2019-05-11T02:33:13.878Z,14.97
2019-05-11T02:35:44.841Z,14.97
2019-05-11T02:38:15.915Z,14.96
2019-05-11T02:40:46.881Z,14.96
2019-05-11T02:43:17.846Z,14.96
2019-05-11T02:45:48.994Z,14.96
2019-05-11T02:48:20.433Z,14.95
2019-05-11T02:50:51.776Z,14.93
2019-05-11T02:53:22.804Z,14.89
2019-05-11T02:55:54.064Z,14.87
2019-05-11T02:58:25.043Z,14.85
2019-05-11T03:00:56.003Z,14.83
2019-05-11T03:03:26.970Z,14.82
2019-05-11T03:05:57.949Z,14.83
2019-05-11T03:08:28.912Z,14.80
2019-05-11T03:10:59.901Z,14.81
2019-05-11T03:13:30.886Z,14.80
2019-05-11T03:16:01.897Z,14.80
2019-05-11T03:18:32.851Z,14.80
2019-05-11T03:21:03.926Z,14.82
2019-05-11T03:23:34.935Z,14.79
2019-05-11T03:26:05.911Z,14.80
2019-05-11T03:28:36.874Z,14.79
2019-05-11T03:31:07.841Z,14.76
2019-05-11T03:33:38.830Z,14.73
2019-05-11T03:36:10.536Z,14.69
2019-05-11T03:38:41.528Z,14.64
2019-05-11T03:41:12.486Z,14.63
2019-05-11T03:43:43.454Z,14.60
2019-05-11T03:46:14.417Z,14.56
2019-05-11T03:48:45.387Z,14.54
2019-05-11T03:51:16.479Z,14.52
2019-05-11T03:53:47.404Z,14.51
2019-05-11T03:56:18.389Z,14.50
2019-05-11T03:58:49.378Z,14.49
2019-05-11T04:01:20.331Z,14.49
2019-05-11T04:03:51.325Z,14.46
2019-05-11T04:06:22.373Z,14.43
2019-05-11T04:08:53.331Z,14.39
2019-05-11T04:11:24.306Z,14.36
2019-05-11T04:13:55.269Z,14.31
2019-05-11T04:16:26.230Z,14.31
2019-05-11T04:18:57.220Z,14.27
2019-05-11T04:21:28.183Z,14.24
2019-05-11T04:23:59.148Z,14.21
2019-05-11T04:26:30.800Z,14.18
2019-05-11T04:29:01.780Z,14.18
2019-05-11T04:31:32.769Z,14.16
2019-05-11T04:34:03.725Z,14.14
2019-05-11T04:36:34.732Z,14.15
2019-05-11T04:39:07.164Z,14.15
2019-05-11T04:41:38.129Z,14.15
2019-05-11T04:44:09.114Z,14.12
2019-05-11T04:46:40.103Z,14.10
2019-05-11T04:49:11.060Z,14.08
2019-05-11T04:51:42.045Z,14.07
2019-05-11T04:54:13.022Z,14.06
2019-05-11T04:56:43.965Z,14.07
2019-05-11T04:59:14.960Z,14.06
2019-05-11T05:01:45.931Z,14.05
2019-05-11T05:04:16.916Z,14.03
2019-05-11T05:06:59.366Z,14.02
2019-05-11T05:09:20.652Z,14.02
2019-05-11T05:11:51.637Z,14.01
2019-05-11T05:14:22.976Z,14.03
2019-05-11T05:16:53.943Z,14.06
2019-05-11T05:19:24.908Z,14.09
2019-05-11T05:21:55.872Z,14.11
2019-05-11T05:24:26.841Z,14.13
2019-05-11T05:26:57.805Z,14.12
2019-05-11T05:29:28.793Z,14.12
2019-05-11T05:31:59.759Z,14.12
2019-05-11T05:34:30.915Z,14.13
2019-05-11T05:37:01.883Z,14.18
2019-05-11T05:39:32.870Z,14.21
2019-05-11T05:42:03.843Z,14.25
2019-05-11T05:44:34.839Z,14.26
2019-05-11T05:47:05.800Z,14.26
2019-05-11T05:49:36.777Z,14.26
2019-05-11T05:52:07.842Z,14.26
2019-05-11T05:54:38.833Z,14.28
2019-05-11T05:57:09.791Z,14.28
2019-05-11T05:59:40.783Z,14.32
2019-05-11T06:02:11.743Z,14.34
2019-05-11T06:04:42.815Z,14.38
2019-05-11T06:07:13.786Z,14.40
2019-05-11T06:09:44.743Z,14.44
2019-05-11T06:12:15.719Z,14.46
2019-05-11T06:14:46.705Z,14.50
2019-05-11T06:17:17.675Z,14.52
2019-05-11T06:19:48.640Z,14.53
2019-05-11T06:22:19.607Z,14.55
2019-05-11T06:24:50.602Z,14.57
2019-05-11T06:27:21.572Z,14.58
2019-05-11T06:29:52.540Z,14.59
2019-05-11T06:32:23.531Z,14.59
2019-05-11T06:34:54.500Z,14.57
2019-05-11T06:37:25.480Z,14.55
2019-05-11T06:39:56.460Z,14.53
2019-05-11T06:42:27.459Z,14.54
2019-05-11T06:44:58.412Z,14.52
2019-05-11T06:47:29.394Z,14.55
2019-05-11T06:50:00.415Z,14.57
2019-05-11T06:52:32.865Z,14.58
2019-05-11T06:55:04.060Z,14.62
2019-05-11T06:57:35.048Z,14.62
2019-05-11T07:00:06.408Z,14.62
2019-05-11T07:02:37.406Z,14.61
2019-05-11T07:05:08.852Z,14.64
2019-05-11T07:07:47.489Z,14.64
2019-05-11T07:10:12.486Z,14.65
2019-05-11T07:12:43.445Z,14.64
2019-05-11T07:15:14.422Z,14.65
2019-05-11T07:17:45.386Z,14.67
2019-05-11T07:20:16.419Z,14.68
2019-05-11T07:22:47.392Z,14.65
2019-05-11T07:25:18.365Z,14.64
2019-05-11T07:27:49.346Z,14.60
2019-05-11T07:30:20.307Z,14.57
2019-05-11T07:32:51.285Z,14.55
2019-05-11T07:35:22.243Z,14.55
2019-05-11T07:37:53.216Z,14.55
2019-05-11T07:40:24.193Z,14.55
2019-05-11T07:42:55.169Z,14.54
2019-05-11T07:45:28.263Z,14.53
2019-05-11T07:47:59.158Z,14.54
2019-05-11T07:50:30.917Z,14.55
2019-05-11T07:53:01.885Z,14.54
2019-05-11T07:55:32.863Z,14.53
2019-05-11T07:58:04.082Z,14.47
2019-05-11T08:00:37.498Z,14.41
2019-05-11T08:03:08.973Z,14.37
2019-05-11T08:05:40.156Z,14.30
2019-05-11T08:08:11.128Z,14.25
2019-05-11T08:10:42.094Z,14.21
2019-05-11T08:13:13.059Z,14.16
2019-05-11T08:15:44.030Z,14.13
2019-05-11T08:18:14.994Z,14.12
2019-05-11T08:20:47.871Z,14.09
2019-05-11T08:23:18.638Z,14.08
2019-05-11T08:25:49.605Z,14.09
2019-05-11T08:28:20.591Z,14.06
2019-05-11T08:30:51.550Z,14.04
2019-05-11T08:33:22.536Z,14.02
2019-05-11T08:35:53.513Z,14.00
2019-05-11T08:38:24.498Z,14.01
2019-05-11T08:40:55.459Z,14.01
2019-05-11T08:43:28.551Z,13.99
2019-05-11T08:46:01.261Z,13.98
2019-05-11T08:48:32.248Z,13.97
2019-05-11T08:51:03.232Z,13.96
2019-05-11T08:53:34.192Z,13.94
2019-05-11T08:56:05.159Z,13.95
2019-05-11T08:58:38.001Z,13.93
2019-05-11T09:01:09.006Z,13.92
2019-05-11T09:03:39.948Z,13.90
2019-05-11T09:06:10.928Z,13.92
2019-05-11T09:08:41.888Z,13.91
2019-05-11T09:11:12.917Z,13.91
2019-05-11T09:13:43.926Z,13.89
2019-05-11T09:16:15.805Z,13.86
2019-05-11T09:18:48.084Z,13.84
2019-05-11T09:21:19.286Z,13.84
2019-05-11T09:23:52.308Z,13.83
2019-05-11T09:26:23.292Z,13.84
2019-05-11T09:28:54.263Z,13.81
2019-05-11T09:31:25.228Z,13.79
2019-05-11T09:33:58.336Z,13.76
2019-05-11T09:36:28.914Z,13.74
2019-05-11T09:38:59.947Z,13.72
2019-05-11T09:41:30.905Z,13.69
2019-05-11T09:44:01.886Z,13.71
2019-05-11T09:46:32.847Z,13.73
2019-05-11T09:49:03.806Z,13.75
2019-05-11T09:51:34.784Z,13.73
2019-05-11T09:54:07.865Z,13.73
2019-05-11T09:56:38.444Z,13.73
2019-05-11T09:59:09.654Z,13.74
2019-05-11T10:01:40.666Z,13.72
2019-05-11T10:04:11.672Z,13.70
2019-05-11T10:06:42.631Z,13.67
2019-05-11T10:09:13.588Z,13.68
2019-05-11T10:11:44.558Z,13.69
2019-05-11T10:14:18.556Z,13.70
2019-05-11T10:16:49.263Z,13.71
2019-05-11T10:19:20.318Z,13.73
2019-05-11T10:21:51.309Z,13.72
2019-05-11T10:24:22.267Z,13.73
2019-05-11T10:26:53.256Z,13.74
2019-05-11T10:29:24.225Z,13.76
2019-05-11T10:31:55.216Z,13.79
2019-05-11T10:34:28.308Z,13.77
2019-05-11T10:36:58.859Z,13.76
2019-05-11T10:39:29.820Z,13.76
2019-05-11T10:42:00.807Z,13.76
2019-05-11T10:44:31.792Z,13.76
2019-05-11T10:47:02.773Z,13.77
2019-05-11T10:49:33.749Z,13.79
2019-05-11T10:52:04.713Z,13.80
2019-05-11T10:54:35.698Z,13.82
2019-05-11T10:57:08.452Z,13.81
2019-05-11T10:59:39.428Z,13.81
2019-05-11T11:02:10.666Z,13.79
2019-05-11T11:04:41.635Z,13.76
2019-05-11T11:07:15.947Z,13.76
2019-05-11T11:09:45.300Z,13.75
2019-05-11T11:12:18.600Z,13.68
2019-05-11T11:14:49.003Z,13.62
2019-05-11T11:17:19.973Z,13.59
2019-05-11T11:19:50.995Z,13.59
2019-05-11T11:22:36.203Z,13.58
2019-05-11T11:24:54.642Z,13.57
2019-05-11T11:27:25.629Z,13.57
2019-05-11T11:29:58.267Z,13.59
2019-05-11T11:32:29.396Z,13.57
2019-05-11T11:35:00.385Z,13.56
2019-05-11T11:37:31.424Z,13.56
2019-05-11T11:40:03.110Z,13.57
2019-05-11T11:42:34.118Z,13.57
2019-05-11T11:45:09.614Z,13.60
2019-05-11T11:47:40.674Z,13.62
2019-05-11T11:50:11.705Z,13.63
2019-05-11T11:52:45.090Z,13.66
2019-05-11T11:55:15.345Z,13.69
2019-05-11T11:57:48.471Z,13.73
2019-05-11T12:00:19.539Z,13.74
2019-05-11T12:02:51.065Z,13.76
2019-05-11T12:05:22.033Z,13.78
2019-05-11T12:07:52.993Z,13.80
2019-05-11T12:10:25.035Z,13.84
2019-05-11T12:12:58.152Z,13.85
2019-05-11T12:15:28.679Z,13.85
2019-05-11T12:17:59.649Z,13.86
2019-05-11T12:20:32.185Z,13.89
2019-05-11T12:23:03.146Z,13.90
2019-05-11T12:25:37.478Z,13.88
2019-05-11T12:28:08.001Z,13.85
2019-05-11T12:30:39.156Z,13.87
2019-05-11T12:33:10.496Z,13.90
2019-05-11T12:35:41.464Z,13.94
2019-05-11T12:38:12.423Z,13.98
2019-05-11T12:40:43.403Z,14.02
2019-05-11T12:43:14.394Z,14.05
2019-05-11T12:45:45.367Z,14.10
2019-05-11T12:48:18.104Z,14.09
2019-05-11T12:50:49.158Z,14.09
2019-05-11T12:53:20.135Z,14.10
2019-05-11T12:55:51.097Z,14.12
2019-05-11T12:58:22.078Z,14.15
2019-05-11T13:00:53.082Z,14.17
2019-05-11T13:03:24.055Z,14.21
2019-05-11T13:05:55.051Z,14.25
2019-05-11T13:08:27.762Z,14.30
2019-05-11T13:10:58.855Z,14.31
2019-05-11T13:13:29.819Z,14.33
2019-05-11T13:16:00.779Z,14.33
2019-05-11T13:18:32.638Z,14.34
2019-05-11T13:21:03.607Z,14.37
2019-05-11T13:23:34.599Z,14.42
2019-05-11T13:26:05.633Z,14.44
2019-05-11T13:28:38.433Z,14.49
2019-05-11T13:31:09.395Z,14.56
2019-05-11T13:33:40.384Z,14.65
2019-05-11T13:36:11.343Z,14.71
2019-05-11T13:38:42.333Z,14.77
2019-05-11T13:41:13.297Z,14.83
2019-05-11T13:43:44.279Z,14.88
2019-05-11T13:46:15.243Z,14.93
2019-05-11T13:48:47.591Z,14.97
2019-05-11T13:51:18.866Z,15.01
2019-05-11T13:53:49.862Z,15.03
2019-05-11T13:56:20.818Z,15.10
2019-05-11T13:58:51.898Z,15.14
2019-05-11T14:01:22.861Z,15.21
2019-05-11T14:03:53.824Z,15.27
2019-05-11T14:06:24.822Z,15.28
2019-05-11T14:08:55.786Z,15.33
2019-05-11T14:11:28.638Z,15.39
2019-05-11T14:13:59.680Z,15.45
2019-05-11T14:16:32.039Z,15.51
2019-05-11T14:19:02.997Z,15.54
2019-05-11T14:21:33.983Z,15.58
2019-05-11T14:24:04.949Z,15.60
2019-05-11T14:26:38.380Z,15.64
2019-05-11T14:29:08.721Z,15.68
2019-05-11T14:31:39.766Z,15.74
2019-05-11T14:34:10.814Z,15.78
2019-05-11T14:36:41.775Z,15.80
2019-05-11T14:39:12.761Z,15.85
2019-05-11T14:41:43.723Z,15.88
2019-05-11T14:44:14.736Z,15.87
2019-05-11T14:46:47.721Z,15.88
2019-05-11T14:49:18.593Z,15.90
2019-05-11T14:51:49.610Z,15.90
2019-05-11T14:54:20.601Z,15.91
2019-05-11T14:56:51.580Z,15.88
2019-05-11T14:59:22.547Z,15.88
2019-05-11T15:01:53.516Z,15.90
2019-05-11T15:04:24.507Z,15.90
2019-05-11T15:06:55.471Z,15.95
2019-05-11T15:09:28.343Z,15.98
2019-05-11T15:11:59.101Z,15.98
2019-05-11T15:14:30.746Z,15.98
2019-05-11T15:17:01.707Z,16.00
2019-05-11T15:19:32.682Z,16.03
2019-05-11T15:22:03.664Z,16.05
2019-05-11T15:24:34.639Z,16.08
2019-05-11T15:27:05.627Z,16.15
2019-05-11T15:29:37.769Z,16.18
2019-05-11T15:32:08.941Z,16.21
2019-05-11T15:34:39.906Z,16.22
2019-05-11T15:37:10.890Z,16.23
2019-05-11T15:39:41.890Z,16.24
2019-05-11T15:42:16.817Z,16.27
2019-05-11T15:44:45.538Z,16.28
2019-05-11T15:47:16.501Z,16.27
2019-05-11T15:49:48.476Z,16.30
2019-05-11T15:52:19.534Z,16.29
2019-05-11T15:54:50.591Z,16.31
2019-05-11T15:57:21.572Z,16.31
2019-05-11T15:59:52.553Z,16.31
2019-05-11T16:02:23.521Z,16.30
2019-05-11T16:04:54.510Z,16.32
2019-05-11T16:07:28.003Z,16.33
2019-05-11T16:09:58.167Z,16.36
2019-05-11T16:12:29.128Z,16.38
2019-05-11T16:15:00.127Z,16.43
2019-05-11T16:17:31.086Z,16.48
2019-05-11T16:20:02.148Z,16.53
2019-05-11T16:22:33.259Z,16.58
2019-05-11T16:25:08.371Z,16.63
2019-05-11T16:27:38.186Z,16.65
2019-05-11T16:30:10.691Z,16.65
2019-05-11T16:32:41.640Z,16.67
2019-05-11T16:35:12.678Z,16.72
2019-05-11T16:37:43.658Z,16.79
2019-05-11T16:40:14.849Z,16.83
2019-05-11T16:42:47.756Z,16.89
2019-05-11T16:45:19.291Z,16.94
2019-05-11T16:47:50.710Z,16.98
2019-05-11T16:50:21.666Z,17.04
2019-05-11T16:52:52.634Z,17.08
2019-05-11T16:55:23.602Z,17.12
2019-05-11T16:57:54.558Z,17.15
2019-05-11T17:00:25.527Z,17.19
2019-05-11T17:02:57.779Z,17.22
2019-05-11T17:05:33.414Z,17.23
2019-05-11T17:08:01.545Z,17.24
2019-05-11T17:10:32.512Z,17.24
2019-05-11T17:13:03.494Z,17.26
2019-05-11T17:15:34.555Z,17.26
2019-05-11T17:18:07.904Z,17.26
2019-05-11T17:20:38.636Z,17.26
2019-05-11T17:23:09.601Z,17.25
2019-05-11T17:25:40.559Z,17.25
2019-05-11T17:28:11.541Z,17.24
2019-05-11T17:30:42.500Z,17.21
2019-05-11T17:33:13.477Z,17.19
2019-05-11T17:35:44.445Z,17.17
2019-05-11T17:38:15.407Z,17.15
2019-05-11T17:40:48.256Z,17.13
2019-05-11T17:43:19.041Z,17.10
2019-05-11T17:45:50.037Z,17.07
2019-05-11T17:48:21.005Z,17.04
2019-05-11T17:50:51.961Z,16.98
2019-05-11T17:53:22.925Z,16.95
2019-05-11T17:55:53.915Z,16.89
2019-05-11T17:58:24.861Z,16.86
2019-05-11T18:00:58.608Z,16.81
2019-05-11T18:03:28.490Z,16.76
2019-05-11T18:05:59.458Z,16.71
2019-05-11T18:08:31.491Z,16.67
2019-05-11T18:11:02.456Z,16.64
2019-05-11T18:13:33.432Z,16.62
2019-05-11T18:16:04.395Z,16.59
2019-05-11T18:18:37.653Z,16.53
2019-05-11T18:21:08.624Z,16.50
2019-05-11T18:23:39.713Z,16.47
2019-05-11T18:26:10.742Z,16.46
2019-05-11T18:28:41.730Z,16.44
2019-05-11T18:31:12.697Z,16.42
2019-05-11T18:33:43.698Z,16.40
2019-05-11T18:36:14.742Z,16.38
2019-05-11T18:38:45.702Z,16.36
2019-05-11T18:41:16.681Z,16.35
2019-05-11T18:43:48.356Z,16.32
2019-05-11T18:46:20.101Z,16.31
2019-05-11T18:48:51.085Z,16.29
2019-05-11T18:51:22.055Z,16.26
2019-05-11T18:53:54.782Z,16.24
2019-05-11T18:56:25.676Z,16.21
2019-05-11T18:58:58.337Z,16.19
2019-05-11T19:01:29.397Z,16.16
2019-05-11T19:04:00.358Z,16.15
2019-05-11T19:06:31.997Z,16.12
2019-05-11T19:09:04.125Z,16.08
2019-05-11T19:11:35.150Z,16.06
2019-05-11T19:14:08.344Z,16.03
2019-05-11T19:16:39.151Z,16.01
2019-05-11T19:19:10.749Z,16.01
2019-05-11T19:21:41.711Z,15.98
2019-05-11T19:24:12.676Z,15.96
2019-05-11T19:26:43.668Z,15.93
2019-05-11T19:29:14.621Z,15.90
2019-05-11T19:31:47.642Z,15.87
2019-05-11T19:34:20.450Z,15.84
2019-05-11T19:36:51.602Z,15.79
2019-05-11T19:39:22.564Z,15.75
2019-05-11T19:41:53.559Z,15.74
2019-05-11T19:44:24.705Z,15.71
2019-05-11T19:46:57.806Z,15.70
2019-05-11T19:49:28.356Z,15.67
2019-05-11T19:51:59.336Z,15.66
2019-05-11T19:54:31.974Z,15.63
2019-05-11T19:57:02.975Z,15.62
2019-05-11T19:59:34.151Z,15.58
2019-05-11T20:02:05.126Z,15.56
2019-05-11T20:04:36.074Z,15.53
2019-05-11T20:07:08.775Z,15.49
2019-05-11T20:09:39.913Z,15.45
2019-05-11T20:12:10.902Z,15.40
2019-05-11T20:14:41.887Z,15.38
2019-05-11T20:17:12.874Z,15.35
2019-05-11T20:19:44.761Z,15.33
2019-05-11T20:22:15.737Z,15.29
2019-05-11T20:24:47.637Z,15.28
2019-05-11T20:27:19.812Z,15.24
2019-05-11T20:29:50.808Z,15.22
2019-05-11T20:32:21.776Z,15.19
2019-05-11T20:34:52.759Z,15.16
2019-05-11T20:37:23.742Z,15.12
2019-05-11T20:39:54.716Z,15.08
2019-05-11T20:42:25.693Z,15.04
2019-05-11T20:44:58.589Z,15.02
2019-05-11T20:47:31.313Z,14.99
2019-05-11T20:50:02.390Z,14.96
2019-05-11T20:52:33.349Z,14.94
2019-05-11T20:55:05.851Z,14.92
2019-05-11T20:57:39.391Z,14.89
2019-05-11T21:00:11.918Z,14.86
2019-05-11T21:02:42.875Z,14.84
2019-05-11T21:05:17.995Z,14.79
2019-05-11T21:07:48.050Z,14.78
2019-05-11T21:10:19.092Z,14.75
2019-05-11T21:12:50.072Z,14.73
2019-05-11T21:15:21.014Z,14.71
2019-05-11T21:17:51.984Z,14.69
2019-05-11T21:20:22.940Z,14.66
2019-05-11T21:22:53.905Z,14.62
2019-05-11T21:25:24.862Z,14.59
2019-05-11T21:27:57.852Z,14.56
2019-05-11T21:30:28.591Z,14.53
2019-05-11T21:32:59.562Z,14.50
2019-05-11T21:35:32.607Z,14.48
2019-05-11T21:38:03.568Z,14.45
2019-05-11T21:40:34.527Z,14.43
2019-05-11T21:43:05.518Z,14.40
2019-05-11T21:45:38.339Z,14.37
2019-05-11T21:48:09.142Z,14.33
2019-05-11T21:50:40.148Z,14.33
2019-05-11T21:53:11.108Z,14.32
2019-05-11T21:55:42.090Z,14.30
2019-05-11T21:58:13.048Z,14.28
2019-05-11T22:00:44.185Z,14.25
2019-05-11T22:03:15.162Z,14.21
2019-05-11T22:05:48.363Z,14.19
2019-05-11T22:08:19.060Z,14.16
2019-05-11T22:10:50.078Z,14.13
2019-05-11T22:13:21.044Z,14.12
2019-05-11T22:15:52.015Z,14.07
2019-05-11T22:18:30.850Z,14.05
2019-05-11T22:20:57.770Z,14.02
2019-05-11T22:23:28.331Z,14.01
2019-05-11T22:25:59.272Z,14.01
2019-05-11T22:28:31.333Z,14.02
2019-05-11T22:31:02.298Z,13.99
2019-05-11T22:33:33.259Z,13.97
2019-05-11T22:36:04.226Z,13.95
2019-05-11T22:38:35.200Z,13.94
2019-05-11T22:41:08.951Z,13.92
2019-05-11T22:43:38.840Z,13.91
2019-05-11T22:46:09.808Z,13.87
2019-05-11T22:48:41.824Z,13.83
2019-05-11T22:51:12.789Z,13.81
2019-05-11T22:53:47.379Z,13.79
2019-05-11T22:56:17.508Z,13.78
2019-05-11T22:58:49.996Z,13.77
2019-05-11T23:01:21.018Z,13.76
2019-05-11T23:03:51.995Z,13.74
2019-05-11T23:06:22.949Z,13.75
2019-05-11T23:08:54.295Z,13.74
2019-05-11T23:11:25.281Z,13.73
2019-05-11T23:13:57.901Z,13.71
2019-05-11T23:16:28.883Z,13.70
2019-05-11T23:18:59.848Z,13.68
2019-05-11T23:21:32.290Z,13.65
2019-05-11T23:24:03.299Z,13.63
2019-05-11T23:26:34.342Z,13.62
2019-05-11T23:29:08.158Z,13.62
2019-05-11T23:31:38.941Z,13.61
2019-05-11T23:34:09.907Z,13.62
2019-05-11T23:36:40.931Z,13.61
2019-05-11T23:39:11.897Z,13.61
2019-05-11T23:41:42.886Z,13.60
2019-05-11T23:44:13.845Z,13.59
2019-05-11T23:46:45.198Z,13.58
2019-05-11T23:49:17.999Z,13.57
2019-05-11T23:51:48.817Z,13.58
2019-05-11T23:54:20.284Z,13.55
2019-05-11T23:56:51.237Z,13.54
2019-05-11T23:59:22.225Z,13.52
